Time;durP1;ratioP1;P1;durP2;ratioP2;P2;SDS_P1;SDS_P2;PMS_P1;PMS_P2;Temp;Humidity;BMP_temperature;BMP_pressure;BME280_temperature;BME280_humidity;BME280_pressure;Samples;Min_cycle;Max_cycle;Signal;HPM_P1;HPM_P2
2023/03/16 00:02:10;;;;;;;9.07;3.53;;;;;;;4.43;100.00;101516.72;5035565;28;20044;-84
2023/03/16 00:04:36;;;;;;;13.70;3.13;;;;;;;4.40;100.00;101511.44;5039708;28;21502;-84
2023/03/16 00:07:04;;;;;;;5.45;3.17;;;;;;;4.41;100.00;101510.47;5022248;28;20036;-84
2023/03/16 00:09:32;;;;;;;6.45;2.97;;;;;;;4.32;100.00;101502.75;5038952;28;20488;-84
2023/03/16 00:11:59;;;;;;;7.72;3.58;;;;;;;4.41;100.00;101521.31;5039098;28;20484;-85
2023/03/16 00:14:25;;;;;;;24.17;4.25;;;;;;;4.41;100.00;101507.75;5021409;28;20031;-84
2023/03/16 00:16:50;;;;;;;6.72;3.55;;;;;;;4.45;100.00;101506.69;5017897;28;20215;-85
2023/03/16 00:19:16;;;;;;;8.57;3.33;;;;;;;4.42;100.00;101507.69;5014521;28;20178;-84
2023/03/16 00:21:41;;;;;;;8.77;2.92;;;;;;;4.45;100.00;101503.09;5055373;28;20216;-85
2023/03/16 00:24:07;;;;;;;8.60;3.22;;;;;;;4.42;100.00;101504.09;5040232;28;20049;-85
2023/03/16 00:26:32;;;;;;;3.97;3.50;;;;;;;4.46;100.00;101497.63;5040827;28;20064;-84
2023/03/16 00:28:58;;;;;;;6.38;3.67;;;;;;;4.48;100.00;101494.84;4996053;28;20100;-84
2023/03/16 00:31:23;;;;;;;4.43;3.53;;;;;;;4.44;100.00;101499.50;5012626;28;20060;-86
2023/03/16 00:33:49;;;;;;;11.35;3.30;;;;;;;4.49;100.00;101491.16;5040597;28;20502;-85
2023/03/16 00:36:15;;;;;;;7.82;3.63;;;;;;;4.47;100.00;101484.94;5024734;28;20029;-85
2023/03/16 00:38:45;;;;;;;10.20;3.42;;;;;;;4.51;100.00;101482.03;5018278;28;20033;-85
2023/03/16 00:41:14;;;;;;;8.43;3.60;;;;;;;4.48;100.00;101476.75;5023876;28;20063;-85
2023/03/16 00:43:41;;;;;;;9.68;3.72;;;;;;;4.53;100.00;101480.13;5022123;28;20033;-85
2023/03/16 00:46:08;;;;;;;10.48;3.63;;;;;;;4.46;100.00;101465.09;5039051;28;20036;-85
2023/03/16 00:48:41;;;;;;;4.53;2.85;;;;;;;4.41;100.00;101462.56;5041168;28;20067;-85
2023/03/16 00:51:08;;;;;;;6.45;3.90;;;;;;;4.51;100.00;101475.69;5057488;28;20087;-84
2023/03/16 00:53:35;;;;;;;5.72;3.22;;;;;;;4.54;100.00;101471.06;5023403;28;20411;-85
2023/03/16 00:56:05;;;;;;;8.48;3.33;;;;;;;4.49;100.00;101459.50;5044170;28;20025;-85
2023/03/16 00:58:34;;;;;;;8.82;3.45;;;;;;;4.55;100.00;101461.06;5057076;28;20255;-84
2023/03/16 01:01:04;;;;;;;12.38;3.45;;;;;;;4.52;100.00;101445.81;5056318;28;20040;-85
2023/03/16 01:03:30;;;;;;;5.97;3.03;;;;;;;4.61;100.00;101455.38;5036737;28;20039;-84
2023/03/16 01:05:58;;;;;;;10.57;3.83;;;;;;;4.62;100.00;101454.41;5036031;28;20108;-83
2023/03/16 01:08:27;;;;;;;4.88;3.25;;;;;;;4.53;100.00;101441.28;5056683;28;20511;-84
2023/03/16 01:10:53;;;;;;;5.80;3.70;;;;;;;4.59;100.00;101449.13;5045816;28;20040;-84
2023/03/16 01:13:22;;;;;;;7.13;3.60;;;;;;;4.57;100.00;101443.75;5037708;28;20116;-84
2023/03/16 01:15:51;;;;;;;4.47;3.20;;;;;;;4.49;100.00;101431.50;5054622;28;20027;-83
2023/03/16 01:18:16;;;;;;;5.18;2.80;;;;;;;4.50;100.00;101427.88;5018949;28;20099;-85
2023/03/16 01:20:49;;;;;;;4.70;3.40;;;;;;;4.53;100.00;101430.44;5037482;28;20392;-85
2023/03/16 01:23:17;;;;;;;5.35;3.42;;;;;;;4.64;100.00;101440.78;5003160;28;20532;-85
2023/03/16 01:25:43;;;;;;;5.32;3.42;;;;;;;4.57;100.00;101427.50;5020998;28;20024;-85
2023/03/16 01:28:08;;;;;;;8.60;2.92;;;;;;;4.60;100.00;101423.78;5005121;28;20369;-84
2023/03/16 01:30:34;;;;;;;5.43;3.40;;;;;;;4.53;100.00;101414.16;5002300;28;20037;-85
2023/03/16 01:33:00;;;;;;;4.18;2.65;;;;;;;4.47;100.00;101415.31;5037434;28;20060;-85
2023/03/16 01:35:25;;;;;;;4.90;3.28;;;;;;;4.54;100.00;101415.91;5055709;28;20084;-84
2023/03/16 01:37:51;;;;;;;4.38;3.15;;;;;;;4.52;100.00;101410.56;5021330;28;20051;-84
2023/03/16 01:40:16;;;;;;;5.72;3.13;;;;;;;4.50;100.00;101403.47;5005792;28;20052;-84
2023/03/16 01:42:48;;;;;;;11.32;3.33;;;;;;;4.51;100.00;101402.50;5055235;28;20045;-85
2023/03/16 01:45:51;;;;;;;3.40;2.50;;;;;;;4.53;100.00;101411.47;5036544;28;20032;-85
2023/03/16 01:48:18;;;;;;;3.63;2.50;;;;;;;4.52;100.00;101402.44;5030168;28;20056;-84
2023/03/16 01:50:44;;;;;;;4.88;2.72;;;;;;;4.57;100.00;101402.22;5018897;28;20115;-83
2023/03/16 01:53:10;;;;;;;5.57;2.80;;;;;;;4.56;100.00;101389.63;5005325;28;20508;-85
2023/03/16 01:55:36;;;;;;;5.90;3.20;;;;;;;4.47;100.00;101380.06;5005025;28;20115;-83
2023/03/16 01:58:02;;;;;;;4.35;3.10;;;;;;;4.50;100.00;101392.63;5019764;28;20059;-82
2023/03/16 02:00:31;;;;;;;3.95;2.50;;;;;;;4.51;100.00;101388.94;5035728;28;20472;-85
2023/03/16 02:03:06;;;;;;;4.40;2.88;;;;;;;4.60;100.00;101392.09;5019214;28;20037;-84
2023/03/16 02:05:47;;;;;;;3.45;2.53;;;;;;;4.55;100.00;101385.16;5047290;28;20473;-84
2023/03/16 02:08:13;;;;;;;4.03;2.88;;;;;;;4.49;100.00;101383.56;5036458;28;20029;-85
2023/03/16 02:10:39;;;;;;;6.10;2.75;;;;;;;4.54;100.00;101383.38;5030390;28;20098;-84
2023/03/16 02:13:11;;;;;;;4.68;2.47;;;;;;;4.57;100.00;101391.38;5017462;28;20065;-84
2023/03/16 02:15:38;;;;;;;3.65;2.45;;;;;;;4.54;100.00;101386.09;5036102;28;20159;-84
2023/03/16 02:18:06;;;;;;;7.32;2.97;;;;;;;4.46;100.00;101367.47;5004098;28;20041;-85
2023/03/16 02:20:34;;;;;;;4.25;2.30;;;;;;;4.55;100.00;101372.47;5018933;28;20044;-84
2023/03/16 02:23:04;;;;;;;4.85;2.28;;;;;;;4.51;100.00;101361.81;5052479;28;20037;-83
2023/03/16 02:25:46;;;;;;;5.45;2.90;;;;;;;4.62;100.00;101372.19;5053884;28;20488;-84
2023/03/16 02:28:36;;;;;;;4.50;2.60;;;;;;;4.60;100.00;101362.28;5036112;28;20094;-85
2023/03/16 02:31:03;;;;;;;2.85;1.77;;;;;;;4.63;100.00;101357.69;5052431;28;20037;-82
2023/03/16 02:33:31;;;;;;;3.45;2.45;;;;;;;4.64;100.00;101360.34;5018020;28;20502;-84
2023/03/16 02:35:56;;;;;;;2.58;2.28;;;;;;;4.70;100.00;101353.72;5052956;28;20032;-84
2023/03/16 02:38:25;;;;;;;4.47;2.45;;;;;;;4.64;100.00;101356.72;5021288;28;20105;-85
2023/03/16 02:41:00;;;;;;;5.18;2.20;;;;;;;4.63;100.00;101336.00;5007560;28;20120;-85
2023/03/16 02:43:33;;;;;;;2.45;2.22;;;;;;;4.68;100.00;101351.09;5035523;28;20048;-85
2023/03/16 02:46:03;;;;;;;8.10;2.40;;;;;;;4.65;100.00;101348.50;5023035;28;20510;-85
2023/03/16 02:48:43;;;;;;;5.82;2.53;;;;;;;4.72;100.00;101355.44;5042678;28;20095;-85
2023/03/16 02:51:09;;;;;;;5.20;2.70;;;;;;;4.72;100.00;101352.72;5049156;28;20068;-85
2023/03/16 02:53:34;;;;;;;5.43;2.72;;;;;;;4.61;100.00;101357.75;5019639;28;20029;-85
2023/03/16 02:56:01;;;;;;;4.88;2.80;;;;;;;4.63;100.00;101358.56;5036184;28;20040;-85
2023/03/16 02:58:27;;;;;;;4.43;2.53;;;;;;;4.63;100.00;101349.56;5035273;28;20033;-85
2023/03/16 03:00:53;;;;;;;5.15;2.45;;;;;;;4.62;100.00;101356.78;5047871;28;20040;-84
2023/03/16 03:03:18;;;;;;;5.25;2.83;;;;;;;4.67;100.00;101351.16;5035599;28;20037;-85
2023/03/16 03:05:44;;;;;;;4.45;2.83;;;;;;;4.51;100.00;101324.75;5017907;28;20045;-84
2023/03/16 03:08:09;;;;;;;4.15;2.78;;;;;;;4.64;100.00;101346.78;5035363;28;20395;-85
2023/03/16 03:10:35;;;;;;;3.53;2.17;;;;;;;4.70;100.00;101349.16;5012319;28;20044;-85
2023/03/16 03:13:00;;;;;;;3.97;2.55;;;;;;;4.67;100.00;101351.16;5030725;28;20545;-84
2023/03/16 03:15:27;;;;;;;6.97;2.67;;;;;;;4.67;100.00;101343.88;5051228;28;20116;-85
2023/03/16 03:17:53;;;;;;;4.00;2.50;;;;;;;4.73;100.00;101338.19;5018431;28;20439;-85
2023/03/16 03:20:18;;;;;;;3.28;2.00;;;;;;;4.52;100.00;101312.94;5035660;28;20045;-85
2023/03/16 03:22:48;;;;;;;5.90;2.63;;;;;;;4.71;100.00;101333.81;5051843;28;20039;-85
2023/03/16 03:25:16;;;;;;;6.00;2.42;;;;;;;4.67;100.00;101334.88;5017589;28;20033;-84
2023/03/16 03:27:42;;;;;;;4.53;2.45;;;;;;;4.74;100.00;101336.38;5035420;28;20116;-84
2023/03/16 03:30:14;;;;;;;3.88;2.72;;;;;;;4.72;100.00;101344.56;5032659;28;20033;-85
2023/03/16 03:32:40;;;;;;;4.22;2.55;;;;;;;4.71;100.00;101323.81;5048137;28;20480;-84
2023/03/16 03:35:06;;;;;;;5.22;2.92;;;;;;;4.74;100.00;101331.81;5035737;28;20025;-85
2023/03/16 03:37:32;;;;;;;4.40;2.72;;;;;;;4.57;100.00;101302.75;5012473;28;20488;-85
2023/03/16 03:39:57;;;;;;;5.07;2.03;;;;;;;4.73;100.00;101324.63;5051949;28;20029;-83
2023/03/16 03:42:23;;;;;;;4.40;2.60;;;;;;;4.72;100.00;101321.97;5034443;28;20399;-85
2023/03/16 03:44:50;;;;;;;2.80;2.28;;;;;;;4.69;100.00;101312.19;5032762;28;20174;-85
2023/03/16 03:47:16;;;;;;;3.85;2.28;;;;;;;4.65;100.00;101309.66;5034335;28;20036;-85
2023/03/16 03:49:41;;;;;;;5.85;2.40;;;;;;;4.70;100.00;101315.75;5009991;28;20029;-85
2023/03/16 03:52:07;;;;;;;4.72;2.10;;;;;;;4.68;100.00;101315.81;5052452;28;20399;-85
2023/03/16 03:54:33;;;;;;;3.75;2.40;;;;;;;4.71;100.00;101314.81;5033441;28;20029;-85
2023/03/16 03:56:58;;;;;;;2.75;2.00;;;;;;;4.64;100.00;101306.09;5014247;28;20037;-84
2023/03/16 03:59:26;;;;;;;5.40;2.53;;;;;;;4.66;100.00;101311.44;5029034;28;20044;-84
2023/03/16 04:01:52;;;;;;;5.38;2.20;;;;;;;4.60;100.00;101293.59;5003153;28;20504;-85
2023/03/16 04:04:18;;;;;;;3.72;2.50;;;;;;;4.64;100.00;101300.66;4998051;28;20060;-85
2023/03/16 04:06:44;;;;;;;4.18;2.65;;;;;;;4.64;100.00;101307.91;5025288;28;20041;-85
2023/03/16 04:09:10;;;;;;;4.15;2.53;;;;;;;4.62;100.00;101302.53;5030464;28;20083;-85
2023/03/16 04:11:36;;;;;;;3.80;2.30;;;;;;;4.67;100.00;101305.03;5031335;28;20442;-85
2023/03/16 04:14:02;;;;;;;4.20;2.80;;;;;;;4.64;100.00;101313.31;5018379;28;20141;-86
2023/03/16 04:16:28;;;;;;;4.22;2.97;;;;;;;4.64;100.00;101303.38;5038270;28;20060;-85
2023/03/16 04:18:54;;;;;;;2.55;2.25;;;;;;;4.68;100.00;101314.97;5018068;28;20123;-85
2023/03/16 04:21:20;;;;;;;3.70;2.40;;;;;;;4.56;100.00;101309.16;5035149;28;20060;-85
2023/03/16 04:23:47;;;;;;;3.85;2.83;;;;;;;4.56;100.00;101301.03;5017849;28;20037;-86
2023/03/16 04:26:13;;;;;;;7.13;2.75;;;;;;;4.58;100.00;101299.09;5034725;28;20029;-85
2023/03/16 04:28:38;;;;;;;5.88;2.50;;;;;;;4.58;100.00;101304.53;5013795;28;20040;-85
2023/03/16 04:31:07;;;;;;;6.18;2.33;;;;;;;4.62;100.00;101309.81;5052995;28;20037;-83
2023/03/16 04:33:34;;;;;;;3.13;2.42;;;;;;;4.58;100.00;101303.66;5020744;28;20037;-87
2023/03/16 04:36:01;;;;;;;5.10;2.30;;;;;;;4.57;100.00;101299.19;5037074;28;20103;-85
2023/03/16 04:38:32;;;;;;;3.75;2.53;;;;;;;4.68;100.00;101296.84;5021914;28;20103;-86
2023/03/16 04:40:58;;;;;;;4.95;2.35;;;;;;;4.55;100.00;101280.25;5045753;28;20029;-85
2023/03/16 04:43:27;;;;;;;4.03;2.17;;;;;;;4.68;100.00;101298.69;5038548;28;20083;-86
2023/03/16 04:45:53;;;;;;;4.00;2.63;;;;;;;4.59;100.00;101278.28;4986349;28;20539;-85
2023/03/16 04:48:19;;;;;;;4.20;2.80;;;;;;;4.58;100.00;101290.09;5044894;28;20033;-84
2023/03/16 04:50:44;;;;;;;7.13;2.40;;;;;;;4.63;100.00;101292.59;5037083;28;20033;-86
2023/03/16 04:53:10;;;;;;;5.18;2.55;;;;;;;4.66;100.00;101295.16;5037190;28;20025;-87
2023/03/16 04:55:35;;;;;;;3.75;2.67;;;;;;;4.62;100.00;101293.53;5016745;28;20057;-87
2023/03/16 04:58:04;;;;;;;5.38;2.70;;;;;;;4.65;100.00;101285.25;5040309;28;20112;-86
2023/03/16 05:00:29;;;;;;;3.13;2.20;;;;;;;4.67;100.00;101289.63;5040760;28;20044;-86
2023/03/16 05:02:55;;;;;;;5.47;2.88;;;;;;;4.65;100.00;101280.72;5035585;28;20492;-86
2023/03/16 05:05:20;;;;;;;5.13;2.30;;;;;;;4.65;100.00;101282.56;5053844;28;20048;-85
2023/03/16 05:07:46;;;;;;;4.18;2.40;;;;;;;4.67;100.00;101280.63;5055929;28;20030;-85
2023/03/16 05:10:13;;;;;;;7.97;2.58;;;;;;;4.66;100.00;101271.63;5019376;28;20055;-86
2023/03/16 05:12:39;;;;;;;3.42;2.30;;;;;;;4.72;100.00;101282.19;5041844;28;20040;-87
2023/03/16 05:15:05;;;;;;;5.47;2.60;;;;;;;4.78;100.00;101281.00;5039983;28;20033;-85
2023/03/16 05:17:31;;;;;;;4.07;2.40;;;;;;;4.73;100.00;101280.34;5039475;28;20044;-86
2023/03/16 05:19:57;;;;;;;6.07;3.17;;;;;;;4.73;100.00;101274.94;5036525;28;20449;-84
2023/03/16 05:22:23;;;;;;;4.97;2.80;;;;;;;4.77;100.00;101274.72;5049651;28;20393;-85
2023/03/16 05:24:48;;;;;;;8.38;2.70;;;;;;;4.75;100.00;101281.16;5027727;28;20172;-84
2023/03/16 05:27:13;;;;;;;5.75;2.30;;;;;;;4.71;100.00;101276.84;5025832;28;20123;-85
2023/03/16 05:29:39;;;;;;;4.68;3.05;;;;;;;4.67;100.00;101265.22;5034181;28;20036;-89
2023/03/16 05:32:05;;;;;;;12.00;2.80;;;;;;;4.71;100.00;101271.41;5019321;28;20051;-89
2023/03/16 05:34:31;;;;;;;8.77;2.80;;;;;;;4.71;100.00;101266.00;5029219;28;20483;-89
2023/03/16 05:36:57;;;;;;;4.43;2.70;;;;;;;4.68;100.00;101261.59;5026147;28;20086;-84
2023/03/16 05:39:22;;;;;;;7.03;2.80;;;;;;;4.79;100.00;101261.06;5012661;28;20076;-84
2023/03/16 05:41:48;;;;;;;5.90;2.63;;;;;;;4.74;100.00;101255.00;5010354;28;20055;-87
2023/03/16 05:44:13;;;;;;;3.90;2.40;;;;;;;4.66;100.00;101243.66;5033493;28;20097;-87
2023/03/16 05:46:39;;;;;;;5.88;2.35;;;;;;;4.77;100.00;101261.16;5060518;28;20029;-85
2023/03/16 05:49:06;;;;;;;3.90;2.40;;;;;;;4.77;100.00;101260.25;5021054;28;20419;-84
2023/03/16 05:51:33;;;;;;;4.88;2.55;;;;;;;4.75;100.00;101254.91;5024503;28;20088;-82
2023/03/16 05:53:58;;;;;;;8.20;3.05;;;;;;;4.81;100.00;101250.16;5034515;28;20096;-85
2023/03/16 05:56:25;;;;;;;8.20;3.17;;;;;;;4.76;100.00;101256.66;5036895;28;20107;-86
2023/03/16 05:58:54;;;;;;;6.60;2.90;;;;;;;4.90;100.00;101264.16;5032986;28;20038;-86
2023/03/16 06:01:21;;;;;;;4.93;3.22;;;;;;;4.78;100.00;101260.19;5003095;28;20092;-86
2023/03/16 06:03:48;;;;;;;6.20;2.63;;;;;;;4.85;100.00;101263.47;5054488;28;20108;-87
2023/03/16 06:06:18;;;;;;;4.35;2.85;;;;;;;4.83;100.00;101251.81;5051538;28;20024;-86
2023/03/16 06:08:43;;;;;;;3.83;2.53;;;;;;;4.86;100.00;101258.94;5008554;28;20044;-87
2023/03/16 06:11:10;;;;;;;7.78;2.95;;;;;;;4.86;100.00;101257.09;5021266;28;20120;-87
2023/03/16 06:13:36;;;;;;;4.20;2.70;;;;;;;4.91;100.00;101255.03;5037382;28;20030;-87
2023/03/16 06:16:02;;;;;;;4.07;2.67;;;;;;;4.88;100.00;101249.75;4998869;28;20041;-87
2023/03/16 06:18:28;;;;;;;5.07;2.92;;;;;;;4.93;100.00;101252.25;5036742;28;20040;-86
2023/03/16 06:20:53;;;;;;;5.75;3.20;;;;;;;4.94;100.00;101254.88;5018493;28;20564;-86
2023/03/16 06:23:22;;;;;;;3.40;2.55;;;;;;;4.85;100.00;101240.91;5065478;28;20038;-85
2023/03/16 06:25:48;;;;;;;4.57;2.35;;;;;;;4.91;100.00;101249.59;5029359;28;20045;-85
2023/03/16 06:28:14;;;;;;;5.05;3.35;;;;;;;4.98;100.00;101247.47;5045934;28;20111;-87
2023/03/16 06:30:40;;;;;;;7.47;3.47;;;;;;;4.97;100.00;101249.31;5020556;28;20530;-87
2023/03/16 06:33:06;;;;;;;5.20;3.40;;;;;;;5.07;100.00;101257.00;5015832;28;20072;-87
2023/03/16 06:35:32;;;;;;;7.07;3.50;;;;;;;5.10;100.00;101251.41;5053584;28;20092;-88
2023/03/16 06:37:58;;;;;;;6.20;3.25;;;;;;;5.13;100.00;101245.81;5021089;28;20098;-88
2023/03/16 06:40:23;;;;;;;6.53;3.20;;;;;;;5.22;100.00;101250.81;5023074;28;20484;-84
2023/03/16 06:42:49;;;;;;;6.88;3.15;;;;;;;5.29;100.00;101256.78;5009174;28;20112;-90
2023/03/16 06:45:20;;;;;;;9.18;4.00;;;;;;;5.28;100.00;101255.94;5050271;28;20033;-85
2023/03/16 06:47:45;;;;;;;7.10;3.53;;;;;;;5.28;100.00;101255.94;5090915;23;20046;-82
2023/03/16 06:50:11;;;;;;;9.98;3.83;;;;;;;5.26;100.00;101251.53;4996288;28;20060;-84
2023/03/16 06:52:37;;;;;;;7.43;3.53;;;;;;;5.28;100.00;101250.50;4953121;28;20038;-86
2023/03/16 06:55:03;;;;;;;10.50;3.80;;;;;;;5.30;100.00;101256.72;4984579;28;20046;-83
2023/03/16 06:57:28;;;;;;;6.82;3.53;;;;;;;5.24;100.00;101246.16;4993833;28;20409;-84
2023/03/16 06:59:54;;;;;;;7.90;3.60;;;;;;;5.30;100.00;101254.00;4987706;28;20026;-82
2023/03/16 07:02:22;;;;;;;6.68;4.25;;;;;;;5.19;100.00;101231.09;4990987;28;20050;-83
2023/03/16 07:04:48;;;;;;;8.88;4.45;;;;;;;5.36;100.00;101265.50;4973552;28;20042;-82
2023/03/16 07:07:15;;;;;;;9.02;3.50;;;;;;;5.26;100.00;101260.56;5200877;22;20062;-85
2023/03/16 07:09:41;;;;;;;6.65;3.67;;;;;;;5.26;100.00;101251.53;5003011;28;20026;-82
2023/03/16 07:17:12;;;;;;;3.25;2.78;;;;;;;5.33;100.00;101248.44;4968811;28;20070;-85
2023/03/16 07:19:37;;;;;;;8.88;3.05;;;;;;;5.32;100.00;101254.81;4964288;28;20042;-83
2023/03/16 07:22:03;;;;;;;8.13;3.70;;;;;;;5.40;100.00;101240.84;4977733;28;20047;-86
2023/03/16 07:24:28;;;;;;;7.53;3.60;;;;;;;5.58;100.00;101257.16;4957556;28;20099;-87
2023/03/16 07:26:54;;;;;;;4.18;3.45;;;;;;;5.59;100.00;101251.66;4969984;28;20043;-85
2023/03/16 07:29:19;;;;;;;5.88;3.67;;;;;;;5.55;100.00;101244.59;4971974;28;20035;-84
2023/03/16 07:31:45;;;;;;;5.00;3.13;;;;;;;5.70;100.00;101248.34;4963385;28;20042;-85
2023/03/16 07:34:10;;;;;;;5.13;3.63;;;;;;;5.67;100.00;101252.13;4951532;28;20058;-87
2023/03/16 07:36:36;;;;;;;3.92;2.97;;;;;;;5.66;100.00;101268.50;4982750;28;20076;-81
2023/03/16 07:39:02;;;;;;;10.38;3.50;;;;;;;5.64;100.00;101255.00;4965694;28;20059;-82
2023/03/16 07:41:28;;;;;;;4.03;2.38;;;;;;;5.55;100.00;101252.75;4981423;28;20026;-83
2023/03/16 07:43:54;;;;;;;4.05;3.30;;;;;;;5.61;100.00;101252.44;5014912;28;20053;-84
2023/03/16 07:46:19;;;;;;;7.72;3.28;;;;;;;5.68;100.00;101251.16;4995216;28;20541;-84
2023/03/16 07:48:45;;;;;;;5.38;3.78;;;;;;;5.69;100.00;101247.47;4995458;28;20027;-84
2023/03/16 07:51:12;;;;;;;5.00;3.03;;;;;;;5.61;100.00;101244.28;4979676;28;20050;-83
2023/03/16 07:53:38;;;;;;;7.03;3.20;;;;;;;5.65;100.00;101250.44;4993758;28;20018;-83
2023/03/16 07:56:05;;;;;;;7.78;3.53;;;;;;;5.64;100.00;101233.25;4959995;28;20038;-84
2023/03/16 07:58:30;;;;;;;9.23;3.33;;;;;;;5.65;100.00;101228.69;4995086;28;20042;-82
2023/03/16 08:00:57;;;;;;;8.70;3.25;;;;;;;5.67;100.00;101224.06;4993086;28;20126;-83
2023/03/16 08:03:27;;;;;;;7.40;3.75;;;;;;;5.75;100.00;101231.81;4995022;28;20027;-83
2023/03/16 08:05:54;;;;;;;9.82;3.35;;;;;;;5.76;100.00;101231.72;5010006;28;20058;-83
2023/03/16 08:08:22;;;;;;;6.00;3.45;;;;;;;5.77;100.00;101243.47;4994700;28;20094;-82
2023/03/16 08:10:51;;;;;;;4.13;3.45;;;;;;;5.76;100.00;101229.00;4996251;28;20038;-82
2023/03/16 08:13:17;;;;;;;5.50;3.55;;;;;;;5.70;100.00;101242.91;4986327;28;20047;-83
2023/03/16 08:16:00;;;;;;;5.28;3.55;;;;;;;5.74;100.00;101243.63;4982842;28;20134;-83
2023/03/16 08:18:29;;;;;;;7.28;3.65;;;;;;;5.75;100.00;101232.69;4981672;28;20086;-83
2023/03/16 08:20:56;;;;;;;9.02;3.08;;;;;;;5.82;100.00;101233.22;4980555;28;20018;-84
2023/03/16 08:23:23;;;;;;;5.38;2.92;;;;;;;5.99;100.00;101229.66;5001195;28;20030;-81
2023/03/16 08:25:53;;;;;;;7.28;3.47;;;;;;;6.03;100.00;101232.13;4984974;28;20015;-81
2023/03/16 08:28:24;;;;;;;5.55;2.40;;;;;;;6.10;100.00;101226.34;5000048;28;20082;-84
2023/03/16 08:30:52;;;;;;;5.38;2.35;;;;;;;6.17;100.00;101230.50;4999983;28;20011;-84
2023/03/16 08:33:19;;;;;;;4.88;2.60;;;;;;;6.16;100.00;101229.59;5000240;28;20027;-83
2023/03/16 08:38:14;;;;;;;9.43;2.80;;;;;;;6.35;100.00;101229.47;4999997;28;20034;-83
2023/03/16 08:40:41;;;;;;;4.50;2.22;;;;;;;6.41;100.00;101222.81;4982924;28;20022;-84
2023/03/16 08:43:07;;;;;;;5.28;2.40;;;;;;;6.39;100.00;101192.09;4964656;28;20047;-83
2023/03/16 08:45:33;;;;;;;2.30;1.75;;;;;;;6.65;100.00;101230.56;4981138;28;20034;-83
2023/03/16 08:47:59;;;;;;;5.00;2.00;;;;;;;6.63;100.00;101233.38;4997870;28;20023;-84
2023/03/16 08:50:26;;;;;;;6.50;2.42;;;;;;;6.64;100.00;101229.72;4973489;28;20034;-84
2023/03/16 08:52:52;;;;;;;5.93;2.08;;;;;;;6.68;100.00;101220.38;4984868;28;20038;-84
2023/03/16 08:55:18;;;;;;;3.75;2.10;;;;;;;6.70;100.00;101223.88;4985905;28;20038;-83
2023/03/16 08:57:44;;;;;;;3.97;2.28;;;;;;;6.81;100.00;101221.44;4975012;28;20026;-85
2023/03/16 09:00:13;;;;;;;5.68;2.55;;;;;;;6.80;100.00;101202.47;4968583;28;20019;-84
2023/03/16 09:02:40;;;;;;;4.75;2.22;;;;;;;7.07;100.00;101212.75;4984507;28;20062;-84
2023/03/16 09:05:09;;;;;;;4.05;2.00;;;;;;;7.11;100.00;101212.44;4968314;28;20025;-82
2023/03/16 09:10:14;;;;;;;2.53;1.70;;;;;;;7.21;100.00;101222.81;5286206;23;20064;-83
2023/03/16 09:12:41;;;;;;;3.08;1.75;;;;;;;7.28;100.00;101216.00;5006507;28;20038;-82
2023/03/16 09:17:43;;;;;;;6.22;1.95;;;;;;;7.40;100.00;101209.84;5134414;23;20287;-84
2023/03/16 09:20:10;;;;;;;6.00;2.15;;;;;;;7.41;100.00;101197.09;5019863;28;20057;-84
2023/03/16 09:25:11;;;;;;;4.78;1.60;;;;;;;7.40;100.00;101200.81;5910937;22;20050;-83
2023/03/16 09:27:37;;;;;;;5.22;1.90;;;;;;;7.55;100.00;101203.44;5121313;22;20085;-81
2023/03/16 09:30:04;;;;;;;3.95;1.83;;;;;;;7.45;100.00;101180.47;5087222;23;20061;-82
2023/03/16 09:32:29;;;;;;;2.72;1.70;;;;;;;7.44;100.00;101166.94;5123220;23;20062;-80
2023/03/16 09:34:55;;;;;;;2.63;1.80;;;;;;;7.42;100.00;101161.59;5016727;28;20031;-85
2023/03/16 09:45:33;;;;;;;5.03;1.70;;;;;;;8.14;100.00;101196.25;5544304;23;20049;-82
2023/03/16 09:48:03;;;;;;;3.42;1.75;;;;;;;8.05;100.00;101200.41;5058669;28;20045;-84
2023/03/16 09:50:33;;;;;;;4.70;1.65;;;;;;;8.10;100.00;101203.75;5042084;28;20084;-82
2023/03/16 09:53:23;;;;;;;8.00;2.00;;;;;;;8.35;100.00;101192.13;5042199;28;20022;-83
2023/03/16 10:01:13;;;;;;;9.30;2.55;;;;;;;8.74;100.00;101181.47;5078968;23;20272;-81
2023/03/16 10:30:49;;;;;;;4.22;1.20;;;;;;;10.06;100.00;101163.28;5778101;23;20039;-83
2023/03/16 10:54:05;;;;;;;4.00;1.75;;;;;;;11.80;87.09;101139.16;5636366;23;20063;-80
2023/03/16 10:56:37;;;;;;;5.80;1.55;;;;;;;11.62;87.94;101155.22;5594264;23;20070;-81
2023/03/16 10:59:14;;;;;;;4.20;1.40;;;;;;;11.16;89.94;101145.97;5540321;23;20405;-81
2023/03/16 11:01:44;;;;;;;4.15;1.45;;;;;;;10.76;88.46;101138.06;5158330;23;21389;-79
2023/03/16 11:09:47;;;;;;;4.55;1.40;;;;;;;11.55;87.42;101138.38;5734778;23;20048;-84
2023/03/16 11:12:14;;;;;;;4.70;1.80;;;;;;;11.34;85.92;101135.44;4943402;29;20063;-84
2023/03/16 11:14:44;;;;;;;7.43;1.58;;;;;;;11.89;86.51;101129.34;4960078;29;20055;-85
2023/03/16 11:17:14;;;;;;;4.90;1.50;;;;;;;11.56;85.17;101129.16;4942771;29;20070;-84
2023/03/16 11:25:05;;;;;;;6.15;1.50;;;;;;;11.34;81.81;101108.03;5715279;23;21007;-81
2023/03/16 11:27:42;;;;;;;3.15;1.65;;;;;;;11.12;85.85;101105.25;4919642;29;20044;-83
2023/03/16 11:30:42;;;;;;;2.42;1.50;;;;;;;11.47;85.96;101090.63;4944912;29;20036;-86
2023/03/16 11:33:10;;;;;;;4.20;1.63;;;;;;;11.61;86.21;101084.03;4952892;29;20091;-84
2023/03/16 11:35:49;;;;;;;2.65;1.20;;;;;;;11.66;82.33;101076.31;4921399;29;20027;-81
2023/03/16 11:38:47;;;;;;;4.30;1.73;;;;;;;11.71;81.95;101068.59;4935683;29;20028;-86
2023/03/16 11:41:27;;;;;;;4.78;1.33;;;;;;;11.64;79.33;101070.06;4920329;29;20046;-85
2023/03/16 11:44:00;;;;;;;3.60;1.42;;;;;;;11.61;74.67;101068.47;4920741;29;20028;-84
2023/03/16 11:46:52;;;;;;;6.63;1.40;;;;;;;11.69;75.76;101071.47;4953879;29;20043;-83
2023/03/16 11:49:32;;;;;;;4.75;1.42;;;;;;;11.88;77.29;101062.59;4921069;29;20038;-85
2023/03/16 11:52:22;;;;;;;3.83;1.05;;;;;;;11.86;74.24;101064.59;4936936;29;20028;-85
2023/03/16 11:54:56;;;;;;;4.32;1.20;;;;;;;11.95;73.07;101057.53;4937367;29;20054;-85
2023/03/16 11:57:37;;;;;;;1.70;1.20;;;;;;;11.93;73.84;101056.78;4923963;29;20103;-84
2023/03/16 12:00:08;;;;;;;2.92;1.35;;;;;;;11.93;71.91;101057.63;4938153;29;20036;-86
2023/03/16 12:02:49;;;;;;;1.73;1.10;;;;;;;11.79;72.31;101052.41;4921679;29;20031;-85
2023/03/16 12:05:43;;;;;;;3.72;2.33;;;;;;;11.91;72.27;101042.28;4937351;29;20101;-85
2023/03/16 12:08:30;;;;;;;2.20;1.10;;;;;;;12.06;71.17;101043.78;4938116;29;20036;-85
2023/03/16 12:11:01;;;;;;;4.65;1.20;;;;;;;12.16;69.86;101043.03;4936050;29;20036;-86
2023/03/16 12:13:52;;;;;;;2.85;1.30;;;;;;;11.96;70.26;101034.59;4951561;29;20495;-86
2023/03/16 12:16:43;;;;;;;1.73;0.90;;;;;;;12.19;70.68;101029.06;4934633;29;20091;-85
2023/03/16 12:19:21;;;;;;;4.82;1.13;;;;;;;12.44;69.95;101023.25;4951300;29;20042;-83
2023/03/16 12:21:53;;;;;;;5.05;1.25;;;;;;;12.39;67.94;101013.66;4952062;29;20396;-85
2023/03/16 12:24:27;;;;;;;3.80;1.48;;;;;;;12.26;66.91;101014.69;4919115;29;20075;-86
2023/03/16 12:26:53;;;;;;;4.88;1.20;;;;;;;12.46;67.34;101017.63;4935905;29;20048;-85
2023/03/16 12:29:40;;;;;;;3.72;1.33;;;;;;;12.57;66.44;101008.47;4952040;29;20042;-85
2023/03/16 12:32:28;;;;;;;7.70;1.40;;;;;;;12.65;67.08;101014.19;4953686;29;20051;-86
2023/03/16 12:35:25;;;;;;;2.85;1.10;;;;;;;12.75;64.23;101022.53;4951976;29;20032;-82
2023/03/16 12:38:09;;;;;;;6.10;1.30;;;;;;;12.93;62.96;101012.69;4908684;29;20051;-85
2023/03/16 12:40:59;;;;;;;3.85;1.00;;;;;;;13.08;62.04;101004.97;4939596;29;20035;-83
2023/03/16 12:43:44;;;;;;;3.40;1.20;;;;;;;13.11;61.09;101003.84;4954912;29;20066;-85
2023/03/16 12:46:18;;;;;;;2.92;1.10;;;;;;;13.01;61.73;100999.13;4956520;29;20035;-86
2023/03/16 12:48:47;;;;;;;2.17;1.08;;;;;;;13.14;61.58;100985.19;4957066;29;20077;-87
2023/03/16 12:51:13;;;;;;;3.05;1.20;;;;;;;13.47;62.60;100983.25;4952119;29;20031;-85
2023/03/16 12:53:50;;;;;;;3.72;1.08;;;;;;;13.44;60.35;100978.00;4934837;29;20055;-86
2023/03/16 12:56:20;;;;;;;5.60;1.05;;;;;;;13.11;61.46;100973.59;4947916;29;20035;-85
2023/03/16 12:58:49;;;;;;;4.13;1.00;;;;;;;13.37;60.26;100960.31;4949547;29;20051;-84
2023/03/16 13:01:24;;;;;;;5.60;1.10;;;;;;;13.50;61.08;100963.72;4915347;29;20039;-84